Port Star — 3EAS6 — position and weather

sailwx.info

Track history (hours):
 
Tides and Currents Weather Stations Pressure Air Temp Water Temp Dewpoint Dewpoint Depression Visibility Wind Speed Wind Dir Waves Ship Positions

Port Star

Last reported at 2016-Apr-15 00:27 UTC. Time now 2016-Apr-30 18:46 UTC.
Position N 14°42' W 017°37'.
Warning: this ship's position is 15 days out of date.

Length 175.5 m; beam 29.4 m.

Type: Ship. MMSI: 356105000.

Date/timePositionNaut miles runAvg speedWind from/ knotsBaromVisibWave heightAir tempDewpointWater temp
2016-Apr-15 00:27N 14°42' W 017°37'1112.3
2016-Apr-14 23:33N 14°53' W 017°37'1512.5
2016-Apr-14 22:23N 15°08' W 017°37'5112.3
2016-Apr-14 18:16N 15°59' W 017°37'1012.9
2016-Apr-14 17:29N 16°09' W 017°37'  
2016-Apr-12 03:21N 28°23' W 013°11'1213.0
2016-Apr-12 02:25N 28°33' W 013°03'1512.6
2016-Apr-12 01:12N 28°45' W 012°52'1012.8
2016-Apr-12 00:25N 28°53' W 012°45'  
2016-Apr-08 23:17N 33°11' W 008°42'22712.8
2016-Apr-08 05:33N 35°58' W 005°35'10 9.7
2016-Apr-08 04:34N 36°01' W 005°24'6 6.2
2016-Apr-08 03:31N 36°07' W 005°21'0 0.0
2016-Apr-08 02:31N 36°07' W 005°21'0 0.0
2016-Apr-08 01:10N 36°07' W 005°21'0 0.0
2016-Apr-08 00:31N 36°07' W 005°21'0 0.0
2016-Apr-07 23:28N 36°07' W 005°21'0 0.1
2016-Apr-07 22:28N 36°07' W 005°21'0 0.0
2016-Apr-07 19:31N 36°07' W 005°21'0 0.0
2016-Apr-07 18:11N 36°07' W 005°21'2 2.7
2016-Apr-07 17:33N 36°05' W 005°20'3 3.4
2016-Apr-07 16:33N 36°06' W 005°16'5 5.0
2016-Apr-07 15:31N 36°11' W 005°13'1 0.8
2016-Apr-07 14:25N 36°10' W 005°13'3 0.7
2016-Apr-07 10:07N 36°07' W 005°11'1 0.4
2016-Apr-07 06:28N 36°06' W 005°10'1 0.5
2016-Apr-07 05:29N 36°06' W 005°11'62812.3
2016-Apr-05 02:22N 37°40' E 007°46'1713.2
2016-Apr-05 01:06N 37°41' E 008°07'  
Track history (hours):
 
Tides and Currents Weather Stations Pressure Air Temp Water Temp Dewpoint Dewpoint Depression Visibility Wind Speed Wind Dir Waves Ship Positions

Port Star

Last reported at 2016-Apr-15 00:27 UTC. Time now 2016-Apr-30 18:46 UTC.
Position N 14°42' W 017°37'.
Warning: this ship's position is 15 days out of date.

Length 175.5 m; beam 29.4 m.

Type: Ship. MMSI: 356105000.

Date/timePositionNaut miles runAvg speedWind from/ knotsBaromVisibWave heightAir tempDewpointWater temp
2016-Apr-15 00:27N 14°42' W 017°37'1112.3
2016-Apr-14 23:33N 14°53' W 017°37'1512.5
2016-Apr-14 22:23N 15°08' W 017°37'5112.3
2016-Apr-14 18:16N 15°59' W 017°37'1012.9
2016-Apr-14 17:29N 16°09' W 017°37'  
2016-Apr-12 03:21N 28°23' W 013°11'1213.0
2016-Apr-12 02:25N 28°33' W 013°03'1512.6
2016-Apr-12 01:12N 28°45' W 012°52'1012.8
2016-Apr-12 00:25N 28°53' W 012°45'  
2016-Apr-08 23:17N 33°11' W 008°42'22712.8
2016-Apr-08 05:33N 35°58' W 005°35'10 9.7
2016-Apr-08 04:34N 36°01' W 005°24'6 6.2
2016-Apr-08 03:31N 36°07' W 005°21'0 0.0
2016-Apr-08 02:31N 36°07' W 005°21'0 0.0
2016-Apr-08 01:10N 36°07' W 005°21'0 0.0
2016-Apr-08 00:31N 36°07' W 005°21'0 0.0
2016-Apr-07 23:28N 36°07' W 005°21'0 0.1
2016-Apr-07 22:28N 36°07' W 005°21'0 0.0
2016-Apr-07 19:31N 36°07' W 005°21'0 0.0
2016-Apr-07 18:11N 36°07' W 005°21'2 2.7
2016-Apr-07 17:33N 36°05' W 005°20'3 3.4
2016-Apr-07 16:33N 36°06' W 005°16'5 5.0
2016-Apr-07 15:31N 36°11' W 005°13'1 0.8
2016-Apr-07 14:25N 36°10' W 005°13'3 0.7
2016-Apr-07 10:07N 36°07' W 005°11'1 0.4
2016-Apr-07 06:28N 36°06' W 005°10'1 0.5
2016-Apr-07 05:29N 36°06' W 005°11'62812.3
2016-Apr-05 02:22N 37°40' E 007°46'1713.2
2016-Apr-05 01:06N 37°41' E 008°07'  

Dump ship's entire track history